Time;durP1;ratioP1;P1;durP2;ratioP2;P2;SDS_P1;SDS_P2;PMS_P1;PMS_P2;Temp;Humidity;BMP_temperature;BMP_pressure;BME280_temperature;BME280_humidity;BME280_pressure;Samples;Min_cycle;Max_cycle;Signal;HPM_P1;HPM_P2
2021/09/24 00:07:49;;;;;;;1.60;1.40;;;;;;;12.76;75.67;98206.70;462200;1192;142189;-60
2021/09/24 00:17:55;;;;;;;5.50;1.60;;;;;;;12.76;75.84;98224.92;472118;1191;141360;-64
2021/09/24 00:28:04;;;;;;;8.40;2.20;;;;;;;12.73;74.29;98245.56;470536;1191;142042;-63
2021/09/24 00:38:11;;;;;;;8.90;2.70;;;;;;;12.52;69.01;98247.36;467180;1190;141119;-63
2021/09/24 00:48:17;;;;;;;7.20;1.90;;;;;;;12.33;66.07;98262.96;468322;1190;142830;-64
2021/09/24 00:58:23;;;;;;;11.90;3.30;;;;;;;12.16;65.25;98283.63;477767;1191;141133;-63
2021/09/24 01:08:31;;;;;;;12.90;3.30;;;;;;;11.86;64.56;98289.47;472351;1190;141863;-63
2021/09/24 01:18:37;;;;;;;9.80;2.40;;;;;;;11.49;64.03;98294.81;465896;1190;142366;-63
2021/09/24 01:28:44;;;;;;;12.90;2.90;;;;;;;11.14;64.48;98312.75;466805;1190;141834;-64
2021/09/24 01:38:51;;;;;;;7.60;2.00;;;;;;;10.88;64.99;98321.85;469547;1190;142892;-64
2021/09/24 01:48:56;;;;;;;18.20;3.30;;;;;;;10.68;65.59;98317.91;463000;1190;141621;-62
2021/09/24 01:59:03;;;;;;;10.10;2.20;;;;;;;10.57;66.23;98324.94;462239;1190;141544;-63
2021/09/24 02:09:09;;;;;;;9.70;2.20;;;;;;;10.59;66.66;98334.20;461774;1190;142289;-63
2021/09/24 02:19:17;;;;;;;7.80;1.50;;;;;;;10.66;67.00;98348.69;467431;1192;142181;-64
2021/09/24 02:29:23;;;;;;;7.90;2.30;;;;;;;10.72;66.97;98354.86;471066;1190;142002;-64
2021/09/24 02:39:29;;;;;;;7.40;1.90;;;;;;;10.81;66.79;98359.89;468753;1191;140894;-63
2021/09/24 02:49:37;;;;;;;8.80;2.10;;;;;;;10.84;66.74;98368.16;461426;1190;141987;-62
2021/09/24 02:59:43;;;;;;;7.30;2.10;;;;;;;10.84;66.61;98379.73;471377;1190;140950;-64
2021/09/24 03:09:49;;;;;;;13.00;2.50;;;;;;;10.85;66.56;98388.56;473992;1190;140949;-64
2021/09/24 03:19:55;;;;;;;4.70;2.10;;;;;;;10.87;66.52;98400.69;475817;1190;142312;-64
2021/09/24 03:30:02;;;;;;;11.80;1.70;;;;;;;10.85;66.61;98398.05;476597;1190;143187;-64
2021/09/24 03:40:11;;;;;;;7.60;2.00;;;;;;;10.83;66.58;98412.23;463902;1192;141108;-63
2021/09/24 03:50:17;;;;;;;5.50;1.80;;;;;;;10.78;66.86;98416.27;476990;1190;141078;-64
2021/09/24 04:00:23;;;;;;;11.00;3.10;;;;;;;10.77;66.78;98434.23;468831;1190;141042;-62
2021/09/24 04:10:29;;;;;;;6.80;2.20;;;;;;;10.72;67.01;98442.89;461324;1190;141251;-63
2021/09/24 04:20:35;;;;;;;8.20;2.80;;;;;;;10.64;67.39;98459.13;466405;1190;141383;-65
2021/09/24 04:30:41;;;;;;;18.90;4.80;;;;;;;10.63;67.70;98460.92;474774;1190;141926;-63
2021/09/24 04:40:48;;;;;;;13.30;3.50;;;;;;;10.65;67.95;98464.80;462704;1187;141831;-63
2021/09/24 04:50:54;;;;;;;9.40;2.80;;;;;;;10.68;68.14;98474.04;461330;1190;141871;-62
2021/09/24 05:01:01;;;;;;;14.50;2.60;;;;;;;10.72;68.24;98485.64;460950;1191;141175;-64
2021/09/24 05:11:06;;;;;;;11.90;3.00;;;;;;;10.73;68.35;98498.59;462844;1190;142504;-63
2021/09/24 05:21:12;;;;;;;6.40;2.50;;;;;;;10.77;68.40;98512.61;463739;1190;141107;-64
2021/09/24 05:31:20;;;;;;;10.90;3.40;;;;;;;10.83;68.52;98527.42;462046;1190;142201;-65
2021/09/24 05:41:26;;;;;;;11.80;2.60;;;;;;;10.86;68.66;98555.67;460395;1190;141283;-63
2021/09/24 05:51:32;;;;;;;5.50;1.60;;;;;;;10.97;68.79;98561.29;477881;1190;142738;-65
2021/09/24 06:01:38;;;;;;;11.60;1.70;;;;;;;11.26;68.58;98571.20;477717;1189;142197;-64
2021/09/24 06:11:45;;;;;;;8.50;3.20;;;;;;;11.52;68.41;98583.17;465276;1190;141097;-64
2021/09/24 06:21:51;;;;;;;12.00;5.60;;;;;;;11.63;68.19;98601.60;462552;1190;141087;-65
2021/09/24 06:31:57;;;;;;;7.10;1.70;;;;;;;11.49;68.20;98609.54;471454;1190;140710;-65
2021/09/24 06:42:04;;;;;;;12.50;2.40;;;;;;;11.41;68.39;98607.27;466719;1189;142226;-65
2021/09/24 06:52:10;;;;;;;7.50;2.70;;;;;;;11.42;68.63;98605.27;461481;1176;141803;-63
2021/09/24 07:02:17;;;;;;;13.90;3.30;;;;;;;11.35;68.72;98618.12;474645;1183;146138;-61
2021/09/24 07:12:23;;;;;;;7.80;2.50;;;;;;;11.31;68.87;98621.02;474432;1190;141869;-65
2021/09/24 07:22:30;;;;;;;12.90;2.90;;;;;;;11.38;68.90;98638.21;469310;1190;141475;-63
2021/09/24 07:32:37;;;;;;;8.90;2.50;;;;;;;11.38;68.92;98658.17;465775;1192;141516;-63
2021/09/24 07:42:43;;;;;;;11.00;3.10;;;;;;;11.54;68.96;98677.31;477713;1190;141706;-71
2021/09/24 07:52:49;;;;;;;5.60;2.70;;;;;;;12.23;68.42;98681.28;477595;1190;141816;-64
2021/09/24 08:02:55;;;;;;;5.90;2.30;;;;;;;12.52;67.51;98692.14;470663;1190;142470;-62
2021/09/24 08:13:01;;;;;;;8.70;2.90;;;;;;;12.75;67.30;98687.92;472191;1190;141675;-61
2021/09/24 08:23:08;;;;;;;9.30;3.00;;;;;;;14.90;66.02;98688.41;460090;1190;141590;-65
2021/09/24 08:33:15;;;;;;;9.40;2.40;;;;;;;15.43;62.27;98701.62;468007;1190;141352;-66
2021/09/24 08:43:21;;;;;;;6.00;2.00;;;;;;;15.07;62.58;98710.80;477862;1190;141459;-65
2021/09/24 08:53:26;;;;;;;6.00;2.60;;;;;;;14.79;61.80;98718.71;476914;1190;162982;-63
2021/09/24 09:03:42;;;;;;;9.70;2.70;;;;;;;14.70;61.92;98724.83;468583;1176;140696;-65
2021/09/24 09:13:51;;;;;;;6.10;2.00;;;;;;;14.69;61.29;98746.58;477766;1190;141350;-66
2021/09/24 09:23:57;;;;;;;10.40;3.80;;;;;;;14.28;61.50;98755.55;477020;1190;141145;-67
2021/09/24 09:34:06;;;;;;;9.30;2.50;;;;;;;14.12;61.92;98766.11;462031;1190;141324;-68
2021/09/24 09:44:23;;;;;;;6.20;1.90;;;;;;;14.21;61.78;98779.59;477001;1190;140956;-59
2021/09/24 09:54:31;;;;;;;4.90;1.70;;;;;;;14.23;61.47;98790.53;477836;1190;141128;-59
2021/09/24 10:04:39;;;;;;;3.60;1.70;;;;;;;14.35;61.11;98794.61;477808;1189;141754;-59
2021/09/24 10:14:45;;;;;;;4.10;1.20;;;;;;;14.47;60.89;98801.71;470011;1183;141139;-59
2021/09/24 10:24:52;;;;;;;5.10;1.30;;;;;;;14.36;60.54;98808.88;464329;1190;141781;-60
2021/09/24 10:35:00;;;;;;;4.70;1.70;;;;;;;14.62;60.77;98821.03;477495;1191;140780;-62
2021/09/24 10:45:13;;;;;;;6.90;1.80;;;;;;;15.21;59.84;98824.80;477615;1191;140754;-64
2021/09/24 10:55:20;;;;;;;7.20;1.30;;;;;;;15.29;59.18;98822.25;463162;1191;140858;-61
2021/09/24 11:05:55;;;;;;;3.60;1.60;;;;;;;15.54;58.45;98825.20;466155;1192;141249;-61
2021/09/24 11:16:02;;;;;;;6.90;2.40;;;;;;;15.38;57.84;98835.29;465930;1191;142403;-63
2021/09/24 11:26:21;;;;;;;8.80;1.90;;;;;;;15.38;57.00;98829.69;476759;1191;141284;-63
2021/09/24 11:36:59;;;;;;;9.40;1.50;;;;;;;15.41;56.72;98837.30;472618;1190;141606;-65
2021/09/24 11:47:16;;;;;;;8.60;1.90;;;;;;;16.09;56.42;98835.34;476911;1190;161791;-65
2021/09/24 11:57:22;;;;;;;5.60;1.80;;;;;;;16.18;55.65;98831.95;477758;1190;141611;-66
2021/09/24 12:07:28;;;;;;;5.20;1.60;;;;;;;15.95;55.73;98836.50;465838;1190;140447;-62
2021/09/24 12:17:34;;;;;;;5.90;1.50;;;;;;;15.93;54.85;98834.77;460207;1191;141600;-62
2021/09/24 12:27:40;;;;;;;5.40;1.40;;;;;;;16.06;54.59;98848.55;461222;1190;140513;-62
2021/09/24 12:37:47;;;;;;;4.70;1.40;;;;;;;16.33;54.31;98860.39;460638;1192;141526;-69
2021/09/24 12:47:54;;;;;;;5.10;1.70;;;;;;;15.72;54.50;98864.46;468193;1190;140467;-68
2021/09/24 12:58:02;;;;;;;7.90;2.70;;;;;;;15.59;54.38;98876.52;477926;1190;140498;-65
2021/09/24 13:08:09;;;;;;;7.40;1.50;;;;;;;15.62;54.44;98879.40;476407;1191;140820;-60
2021/09/24 13:18:15;;;;;;;8.60;2.20;;;;;;;16.08;53.96;98887.01;469829;1190;10001368;-66
2021/09/24 13:28:22;;;;;;;10.50;3.10;;;;;;;15.96;53.78;98891.89;472872;1190;141157;-60
2021/09/24 13:38:28;;;;;;;7.00;2.10;;;;;;;15.82;53.39;98888.28;462188;1190;140888;-64
2021/09/24 13:48:35;;;;;;;6.90;1.80;;;;;;;15.12;53.71;98885.14;463190;1190;142507;-65
2021/09/24 13:58:42;;;;;;;5.20;1.70;;;;;;;14.94;54.17;98894.23;475476;1191;140457;-61
2021/09/24 14:08:48;;;;;;;2.90;1.50;;;;;;;15.11;53.67;98898.99;465209;1191;139987;-61
2021/09/24 14:18:54;;;;;;;5.60;1.90;;;;;;;15.27;53.35;98912.16;477627;1191;140599;-59
2021/09/24 14:29:00;;;;;;;9.30;1.80;;;;;;;15.05;53.03;98924.74;477700;1191;141423;-62
2021/09/24 14:39:06;;;;;;;9.30;3.40;;;;;;;14.66;53.10;98935.92;477321;1183;142615;-63
2021/09/24 14:49:12;;;;;;;8.10;2.30;;;;;;;14.51;53.49;98944.48;477739;1191;140213;-63
2021/09/24 14:59:18;;;;;;;6.30;1.90;;;;;;;14.61;53.68;98940.91;466177;1191;140883;-63
2021/09/24 15:09:23;;;;;;;11.30;2.70;;;;;;;14.24;54.42;98940.75;461355;1191;140528;-62
2021/09/24 15:19:29;;;;;;;8.60;2.80;;;;;;;13.89;55.28;98949.41;465623;1191;140561;-62
2021/09/24 15:29:40;;;;;;;7.80;2.60;;;;;;;13.71;55.83;98959.41;465440;1191;145154;-62
2021/09/24 15:39:46;;;;;;;6.90;2.40;;;;;;;13.63;56.06;98968.57;463752;1191;142117;-63
2021/09/24 15:49:52;;;;;;;9.20;2.90;;;;;;;13.58;56.45;98983.08;468822;1191;140676;-64
2021/09/24 15:59:59;;;;;;;5.20;2.60;;;;;;;13.46;56.85;98992.52;470278;1191;140569;-63
2021/09/24 16:10:05;;;;;;;7.40;3.00;;;;;;;13.22;57.44;98998.19;471375;1190;141146;-62
2021/09/24 16:20:15;;;;;;;10.70;3.40;;;;;;;12.88;58.16;99009.77;472262;1190;140321;-63
2021/09/24 16:30:21;;;;;;;7.30;3.20;;;;;;;12.59;58.89;99007.43;471622;1190;140230;-63
2021/09/24 16:40:27;;;;;;;11.90;4.00;;;;;;;12.26;59.57;99017.39;460872;1190;143513;-61
2021/09/24 16:50:33;;;;;;;10.10;2.80;;;;;;;11.88;60.53;99025.80;475910;1190;140835;-64
2021/09/24 17:00:41;;;;;;;9.40;3.90;;;;;;;11.54;61.27;99040.85;473854;1190;141498;-63
2021/09/24 17:10:47;;;;;;;9.20;3.00;;;;;;;11.29;61.99;99040.81;460412;1193;140705;-64
2021/09/24 17:21:06;;;;;;;9.20;3.00;;;;;;;11.04;62.48;99044.96;463546;1191;20002266;-59
2021/09/24 17:31:12;;;;;;;12.80;4.20;;;;;;;10.83;63.04;99054.08;460472;1184;141782;-60
2021/09/24 17:41:18;;;;;;;7.50;3.70;;;;;;;10.75;63.63;99062.16;460447;1192;140864;-62
2021/09/24 17:51:24;;;;;;;13.70;3.60;;;;;;;10.43;64.25;99086.96;476589;1191;144327;-63
2021/09/24 18:01:29;;;;;;;9.10;3.80;;;;;;;10.21;64.77;99098.69;464080;1191;141257;-62
2021/09/24 18:11:36;;;;;;;8.20;3.80;;;;;;;9.99;65.41;99113.28;472824;1191;141605;-64
2021/09/24 18:21:41;;;;;;;10.80;4.90;;;;;;;9.80;65.98;99128.75;477747;1190;141548;-63
2021/09/24 18:31:47;;;;;;;14.90;5.50;;;;;;;9.70;66.32;99150.04;474881;1191;141924;-61
2021/09/24 18:41:57;;;;;;;11.00;5.00;;;;;;;9.57;66.69;99151.43;471770;1190;144004;-62
2021/09/24 18:52:03;;;;;;;8.80;3.90;;;;;;;9.45;67.01;99156.42;475526;1191;143132;-63
2021/09/24 19:02:09;;;;;;;14.30;3.80;;;;;;;9.38;67.55;99167.90;470006;1191;143020;-62
2021/09/24 19:12:15;;;;;;;15.50;5.20;;;;;;;9.34;67.77;99175.80;472770;1190;141242;-62
2021/09/24 19:22:21;;;;;;;8.70;4.20;;;;;;;9.34;68.15;99177.23;461469;1190;140818;-65
2021/09/24 19:32:27;;;;;;;12.20;3.50;;;;;;;9.24;68.58;99190.46;466976;1190;142045;-64
2021/09/24 19:42:33;;;;;;;13.20;5.30;;;;;;;9.05;69.11;99189.71;472461;1190;141877;-70
2021/09/24 19:52:39;;;;;;;13.90;5.00;;;;;;;8.88;69.47;99195.88;466847;1192;140932;-69
2021/09/24 20:02:45;;;;;;;12.60;3.20;;;;;;;8.74;70.24;99200.37;461559;1190;141383;-68
2021/09/24 20:12:51;;;;;;;8.50;4.00;;;;;;;8.61;70.64;99203.33;462283;1190;141149;-68
2021/09/24 20:22:57;;;;;;;16.50;5.50;;;;;;;8.50;71.31;99211.98;472924;1190;142208;-64
2021/09/24 20:33:04;;;;;;;14.70;6.70;;;;;;;8.44;71.69;99218.25;465155;1190;140860;-68
2021/09/24 20:43:10;;;;;;;11.80;5.60;;;;;;;8.36;72.23;99214.86;464851;1190;141241;-69
2021/09/24 20:53:16;;;;;;;16.60;7.50;;;;;;;8.33;73.00;99217.52;462163;1190;140927;-68
2021/09/24 21:03:22;;;;;;;12.10;6.00;;;;;;;8.29;73.52;99217.41;464146;1190;141859;-67
2021/09/24 21:13:28;;;;;;;12.40;5.90;;;;;;;8.21;73.92;99206.55;465932;1190;141376;-70
2021/09/24 21:23:34;;;;;;;16.00;5.70;;;;;;;8.16;74.58;99204.77;462453;1190;141644;-68
2021/09/24 21:33:41;;;;;;;11.40;5.20;;;;;;;8.27;75.63;99208.98;461373;1190;141110;-58
2021/09/24 21:43:47;;;;;;;14.00;7.10;;;;;;;8.62;76.42;99209.66;469142;1191;141574;-57
2021/09/24 21:53:52;;;;;;;10.20;5.90;;;;;;;9.19;77.30;99203.88;476576;1191;143189;-60
2021/09/24 22:03:59;;;;;;;14.80;6.30;;;;;;;9.71;77.30;99200.48;463306;1192;142253;-59
2021/09/24 22:14:05;;;;;;;9.50;5.50;;;;;;;10.07;77.34;99200.20;460339;1192;145699;-57
2021/09/24 22:24:11;;;;;;;14.20;7.70;;;;;;;10.28;77.14;99204.73;461796;1188;141820;-61
2021/09/24 22:34:17;;;;;;;12.00;6.40;;;;;;;10.43;76.99;99199.32;464894;1190;142161;-58
2021/09/24 22:44:23;;;;;;;10.60;7.20;;;;;;;10.61;76.75;99203.54;477067;1190;144457;-58
2021/09/24 22:54:29;;;;;;;12.70;7.10;;;;;;;10.70;76.70;99202.73;477841;1190;144000;-58
2021/09/24 23:04:35;;;;;;;12.70;7.10;;;;;;;10.74;76.65;99192.23;470625;1190;141512;-58
2021/09/24 23:14:41;;;;;;;14.50;6.50;;;;;;;10.79;76.86;99189.82;477009;1190;141867;-59
2021/09/24 23:24:47;;;;;;;12.80;7.00;;;;;;;10.87;76.98;99189.05;473243;1190;142213;-58
2021/09/24 23:34:53;;;;;;;18.10;7.50;;;;;;;10.99;77.08;99195.95;475949;1190;142456;-59
2021/09/24 23:44:59;;;;;;;12.90;6.30;;;;;;;11.11;77.01;99194.91;464941;1190;142083;-59
2021/09/24 23:55:06;;;;;;;12.90;6.40;;;;;;;11.19;77.16;99194.84;464980;1190;142396;-60
